createdAt,value
2022-12-13T00:00:14.602Z,18.30
2022-12-13T00:02:16.357Z,19.60
2022-12-13T00:04:20.428Z,20.07
2022-12-13T00:06:22.463Z,18.57
2022-12-13T00:08:24.284Z,19.73
2022-12-13T00:10:26.119Z,18.57
2022-12-13T00:12:27.888Z,18.97
2022-12-13T00:14:29.985Z,22.03
2022-12-13T00:16:31.719Z,20.90
2022-12-13T00:18:34.240Z,22.30
2022-12-13T00:20:43.673Z,20.03
2022-12-13T00:22:45.432Z,22.53
2022-12-13T00:24:49.492Z,19.53
2022-12-13T00:26:54.671Z,21.57
2022-12-13T00:29:00.379Z,20.63
2022-12-13T00:31:35.250Z,22.30
2022-12-13T00:33:27.292Z,22.07
2022-12-13T00:35:29.021Z,20.77
2022-12-13T00:37:31.141Z,21.83
2022-12-13T00:39:32.817Z,21.63
2022-12-13T00:41:35.968Z,18.27
2022-12-13T00:43:37.866Z,23.63
2022-12-13T00:45:39.804Z,21.17
2022-12-13T00:47:43.699Z,22.90
2022-12-13T00:49:45.360Z,23.57
2022-12-13T00:51:49.340Z,22.07
2022-12-13T00:53:51.266Z,23.87
2022-12-13T00:55:52.947Z,20.40
2022-12-13T00:57:54.726Z,22.03
2022-12-13T00:59:56.551Z,25.30
2022-12-13T01:01:58.375Z,21.97
2022-12-13T01:04:02.392Z,23.37
2022-12-13T01:06:34.056Z,23.80
2022-12-13T01:08:39.412Z,20.13
2022-12-13T01:10:47.694Z,21.43
2022-12-13T01:12:49.355Z,21.37
2022-12-13T01:14:55.926Z,23.47
2022-12-13T01:17:00.327Z,23.10
2022-12-13T01:19:02.187Z,22.67
2022-12-13T01:21:16.449Z,23.40
2022-12-13T01:23:18.133Z,24.03
2022-12-13T01:25:19.779Z,23.70
2022-12-13T01:27:21.538Z,19.33
2022-12-13T01:29:24.121Z,20.17
2022-12-13T01:31:27.818Z,21.30
2022-12-13T01:33:30.161Z,20.80
2022-12-13T01:35:35.000Z,22.23
2022-12-13T01:37:37.360Z,22.53
2022-12-13T01:39:39.437Z,22.13
2022-12-13T01:41:41.709Z,21.27
2022-12-13T01:43:43.341Z,21.73
2022-12-13T01:45:45.910Z,20.60
2022-12-13T01:47:51.582Z,21.53
2022-12-13T01:49:55.751Z,20.73
2022-12-13T01:52:05.768Z,21.27
2022-12-13T01:54:11.645Z,19.27
2022-12-13T01:56:26.025Z,20.90
2022-12-13T01:58:28.507Z,19.73
2022-12-13T02:00:30.676Z,24.77
2022-12-13T02:02:32.350Z,22.80
2022-12-13T02:04:45.552Z,23.33
2022-12-13T02:06:47.820Z,22.03
2022-12-13T02:08:49.711Z,19.90
2022-12-13T02:10:54.177Z,21.50
2022-12-13T02:12:59.174Z,22.90
2022-12-13T02:15:05.143Z,21.43
2022-12-13T02:17:45.050Z,20.97
2022-12-13T02:20:09.904Z,20.87
2022-12-13T02:22:48.748Z,20.57
2022-12-13T02:25:18.565Z,20.43
2022-12-13T02:27:51.161Z,21.80
2022-12-13T02:30:22.491Z,20.60
2022-12-13T02:32:52.108Z,21.20
2022-12-13T02:35:12.043Z,22.73
2022-12-13T02:37:44.078Z,23.13
2022-12-13T02:39:58.263Z,20.87
2022-12-13T02:42:22.369Z,20.47
2022-12-13T02:44:31.080Z,24.00
2022-12-13T02:46:38.550Z,21.00
2022-12-13T02:48:42.679Z,22.17
2022-12-13T02:50:45.700Z,20.43
2022-12-13T02:52:51.313Z,21.73
2022-12-13T02:54:57.345Z,23.10
2022-12-13T02:57:00.211Z,21.30
2022-12-13T02:59:05.699Z,21.90
2022-12-13T03:01:47.528Z,21.73
2022-12-13T03:04:01.033Z,21.23
2022-12-13T03:06:34.093Z,22.00
2022-12-13T03:08:51.503Z,20.90
2022-12-13T03:10:59.577Z,20.97
2022-12-13T03:13:25.414Z,21.30
2022-12-13T03:15:35.692Z,21.90
2022-12-13T03:18:15.438Z,20.60
2022-12-13T03:20:23.599Z,20.40
2022-12-13T03:22:25.427Z,20.03
2022-12-13T03:24:27.155Z,21.20
2022-12-13T03:26:29.795Z,22.77
2022-12-13T03:28:33.769Z,22.37
2022-12-13T03:30:35.805Z,18.67
2022-12-13T03:32:37.974Z,21.30
2022-12-13T03:34:44.051Z,23.93
2022-12-13T03:36:47.194Z,20.83
2022-12-13T03:38:52.147Z,20.00
2022-12-13T03:41:05.646Z,19.53
2022-12-13T03:43:07.414Z,20.40
2022-12-13T03:45:09.488Z,20.57
2022-12-13T03:47:11.781Z,20.17
2022-12-13T03:49:17.314Z,20.20
2022-12-13T03:51:19.507Z,18.20
2022-12-13T03:53:33.416Z,20.07
2022-12-13T03:55:36.043Z,21.60
2022-12-13T03:57:37.679Z,21.77
2022-12-13T03:59:39.316Z,20.07
2022-12-13T04:01:40.980Z,17.33
2022-12-13T04:03:44.575Z,21.07
2022-12-13T04:05:46.364Z,17.83
2022-12-13T04:07:48.779Z,18.87
2022-12-13T04:09:50.477Z,19.50
2022-12-13T04:12:14.049Z,19.73
2022-12-13T04:14:22.904Z,20.70
2022-12-13T04:16:24.952Z,21.07
2022-12-13T04:18:26.632Z,22.93
2022-12-13T04:20:28.275Z,20.83
2022-12-13T04:22:29.965Z,19.63
2022-12-13T04:24:32.379Z,21.70
2022-12-13T04:26:34.119Z,23.67
2022-12-13T04:28:35.991Z,21.33
2022-12-13T04:30:38.137Z,22.47
2022-12-13T04:32:39.929Z,22.73
2022-12-13T04:34:43.508Z,21.37
2022-12-13T04:36:46.497Z,21.80
2022-12-13T04:38:48.201Z,21.03
2022-12-13T04:40:50.144Z,22.83
2022-12-13T04:42:54.395Z,21.60
2022-12-13T04:44:56.198Z,22.23
2022-12-13T04:47:01.000Z,24.00
2022-12-13T04:49:03.315Z,21.33
2022-12-13T04:51:05.025Z,20.77
2022-12-13T04:53:06.659Z,24.83
2022-12-13T04:55:08.979Z,21.83
2022-12-13T04:57:14.268Z,22.03
2022-12-13T04:59:16.804Z,22.30
2022-12-13T05:01:18.531Z,21.37
2022-12-13T05:03:20.187Z,23.73
2022-12-13T05:05:22.400Z,23.93
2022-12-13T05:07:28.233Z,21.67
2022-12-13T05:09:30.018Z,22.73
2022-12-13T05:11:35.464Z,21.87
2022-12-13T05:13:37.932Z,21.17
2022-12-13T05:15:39.879Z,22.37
2022-12-13T05:17:41.580Z,20.40
2022-12-13T05:19:43.504Z,20.87
2022-12-13T05:21:46.464Z,22.00
2022-12-13T05:23:48.942Z,21.77
2022-12-13T05:25:51.717Z,19.87
2022-12-13T05:27:58.000Z,19.37
2022-12-13T05:30:02.727Z,22.73
2022-12-13T05:32:06.489Z,20.53
2022-12-13T05:34:08.207Z,21.20
2022-12-13T05:36:10.189Z,18.30
2022-12-13T05:38:11.822Z,19.03
2022-12-13T05:40:14.998Z,20.23
2022-12-13T05:42:19.043Z,20.50
2022-12-13T05:44:20.732Z,21.70
2022-12-13T05:46:22.486Z,18.83
2022-12-13T05:48:25.058Z,21.80
2022-12-13T05:50:26.845Z,21.17
2022-12-13T05:52:30.523Z,20.53
2022-12-13T05:54:42.938Z,21.07
2022-12-13T05:56:44.841Z,20.47
2022-12-13T05:58:46.511Z,22.27
2022-12-13T06:01:07.378Z,19.87
2022-12-13T06:03:09.677Z,20.77
2022-12-13T06:05:12.062Z,22.63
2022-12-13T06:07:14.231Z,21.63
2022-12-13T06:09:15.933Z,20.00
2022-12-13T06:11:32.058Z,20.40
2022-12-13T06:13:34.173Z,19.90
2022-12-13T06:15:44.870Z,22.17
2022-12-13T06:17:46.589Z,19.40
2022-12-13T06:19:55.547Z,19.60
2022-12-13T06:21:57.248Z,21.67
2022-12-13T06:23:59.511Z,21.67
2022-12-13T06:26:08.785Z,20.50
2022-12-13T06:28:10.509Z,20.47
2022-12-13T06:30:12.682Z,19.67
2022-12-13T06:32:14.367Z,21.07
2022-12-13T06:34:15.982Z,18.57
2022-12-13T06:36:17.688Z,20.37
2022-12-13T06:38:21.985Z,23.20
2022-12-13T06:40:33.782Z,19.37
2022-12-13T06:42:35.491Z,20.37
2022-12-13T06:44:41.582Z,21.67
2022-12-13T06:46:44.262Z,21.17
2022-12-13T06:48:46.147Z,21.70
2022-12-13T06:50:49.001Z,22.77
2022-12-13T06:52:51.172Z,21.33
2022-12-13T06:54:58.279Z,19.87
2022-12-13T06:57:02.070Z,21.57
2022-12-13T06:59:06.083Z,20.43
2022-12-13T07:01:14.844Z,18.40
2022-12-13T07:03:16.998Z,20.37
2022-12-13T07:05:18.760Z,21.90
2022-12-13T07:07:22.812Z,23.23
2022-12-13T07:09:24.573Z,22.00
2022-12-13T07:11:29.839Z,21.20
2022-12-13T07:13:31.811Z,21.40
2022-12-13T07:15:34.149Z,21.97
2022-12-13T07:17:35.978Z,23.17
2022-12-13T07:19:40.131Z,20.00
2022-12-13T07:21:44.371Z,19.80
2022-12-13T07:23:48.635Z,20.17
2022-12-13T07:25:57.082Z,20.03
2022-12-13T07:28:01.217Z,20.20
2022-12-13T07:30:04.541Z,20.97
2022-12-13T07:32:06.215Z,18.23
2022-12-13T07:34:15.360Z,20.23
2022-12-13T07:36:19.763Z,22.37
2022-12-13T07:38:23.781Z,21.13
2022-12-13T07:40:26.187Z,20.23
2022-12-13T07:42:28.774Z,23.93
2022-12-13T07:44:32.839Z,19.50
2022-12-13T07:46:36.854Z,20.77
2022-12-13T07:48:38.613Z,21.30
2022-12-13T07:50:40.354Z,22.10
2022-12-13T07:52:42.226Z,20.00
2022-12-13T07:54:43.925Z,17.90
2022-12-13T07:56:45.912Z,22.43
2022-12-13T07:58:47.969Z,19.03
2022-12-13T08:00:49.636Z,21.83
2022-12-13T08:02:51.287Z,19.07
2022-12-13T08:04:54.839Z,18.73
2022-12-13T08:06:57.192Z,19.23
2022-12-13T08:08:58.871Z,20.47
2022-12-13T08:11:11.729Z,19.27
2022-12-13T08:13:13.439Z,20.10
2022-12-13T08:15:16.050Z,19.63
2022-12-13T08:17:17.726Z,20.73
2022-12-13T08:19:19.681Z,20.30
2022-12-13T08:21:52.696Z,18.57
2022-12-13T08:23:43.064Z,20.57
2022-12-13T08:25:51.773Z,20.37
2022-12-13T08:27:53.617Z,20.93
2022-12-13T08:30:07.038Z,20.27
2022-12-13T08:32:10.929Z,18.97
2022-12-13T08:34:12.606Z,19.80
2022-12-13T08:36:16.541Z,20.53
2022-12-13T08:38:22.924Z,19.87
2022-12-13T08:40:25.589Z,21.13
2022-12-13T08:42:27.349Z,19.40
2022-12-13T08:44:28.995Z,20.00
2022-12-13T08:46:30.706Z,19.30
2022-12-13T08:48:34.895Z,22.37
2022-12-13T08:50:45.496Z,21.83
2022-12-13T08:52:47.132Z,20.20
2022-12-13T08:54:48.838Z,18.90
2022-12-13T08:56:50.466Z,18.17
2022-12-13T08:59:00.894Z,18.53
2022-12-13T09:01:08.915Z,19.70
2022-12-13T09:03:10.696Z,20.40
2022-12-13T09:05:32.449Z,21.33
2022-12-13T09:07:39.337Z,19.80
2022-12-13T09:09:41.028Z,20.47
2022-12-13T09:11:42.689Z,19.17
2022-12-13T09:13:45.289Z,18.53
2022-12-13T09:15:47.304Z,17.80
2022-12-13T09:17:52.258Z,19.53
2022-12-13T09:19:58.113Z,20.80
2022-12-13T09:22:03.253Z,20.30
2022-12-13T09:24:05.096Z,19.27
2022-12-13T09:26:25.707Z,19.83
2022-12-13T09:28:30.707Z,19.10
2022-12-13T09:30:32.521Z,18.40
2022-12-13T09:32:34.419Z,17.73
2022-12-13T09:34:36.172Z,19.30
2022-12-13T09:36:38.473Z,19.50
2022-12-13T09:38:40.254Z,19.10
2022-12-13T09:40:45.524Z,18.93
2022-12-13T09:43:11.838Z,19.13
2022-12-13T09:45:26.893Z,19.13
2022-12-13T09:47:47.171Z,20.47
2022-12-13T09:49:53.012Z,19.70
2022-12-13T09:52:10.873Z,19.40
2022-12-13T09:54:20.914Z,18.30
2022-12-13T09:56:24.375Z,18.27
2022-12-13T09:58:31.884Z,18.07
2022-12-13T10:00:38.845Z,17.93
2022-12-13T10:02:58.268Z,17.53
2022-12-13T10:05:22.201Z,17.83
2022-12-13T10:07:25.252Z,20.07
2022-12-13T10:09:27.070Z,17.80
2022-12-13T10:11:31.628Z,18.80
2022-12-13T10:13:43.429Z,16.63
2022-12-13T10:15:51.747Z,17.63
2022-12-13T10:17:55.515Z,17.33
2022-12-13T10:19:58.177Z,19.50
2022-12-13T10:22:04.335Z,17.87
2022-12-13T10:24:36.505Z,16.47
2022-12-13T10:26:39.556Z,17.10
2022-12-13T10:28:42.699Z,17.53
2022-12-13T10:30:46.206Z,17.13
2022-12-13T10:32:54.881Z,16.10
2022-12-13T10:34:57.023Z,16.30
2022-12-13T10:36:59.573Z,16.37
2022-12-13T10:39:02.548Z,16.83
2022-12-13T10:41:32.958Z,16.73
2022-12-13T10:43:36.032Z,14.77
2022-12-13T10:45:41.549Z,16.07
2022-12-13T10:47:45.407Z,15.17
2022-12-13T10:49:59.302Z,19.10
2022-12-13T10:52:05.499Z,15.70
2022-12-13T10:54:18.447Z,14.77
2022-12-13T10:56:22.820Z,15.67
2022-12-13T10:58:35.865Z,14.87
2022-12-13T11:00:47.274Z,16.87
2022-12-13T11:02:56.652Z,16.07
2022-12-13T11:05:23.349Z,16.93
2022-12-13T11:07:27.760Z,15.80
2022-12-13T11:09:38.691Z,15.00
2022-12-13T11:11:43.238Z,14.63
2022-12-13T12:37:27.353Z,11.93
2022-12-13T12:39:43.724Z,12.40
2022-12-13T12:42:06.610Z,14.17
2022-12-13T12:44:31.259Z,13.40
2022-12-13T12:47:28.607Z,12.13
2022-12-13T12:49:51.148Z,11.77
2022-12-13T12:52:11.922Z,11.87
2022-12-13T12:54:40.086Z,12.03
2022-12-13T12:56:54.951Z,10.50
2022-12-13T12:59:06.553Z,11.43
2022-12-13T13:01:43.890Z,10.17
2022-12-13T13:03:48.282Z,10.07
2022-12-13T13:06:10.982Z,15.00
2022-12-13T13:08:27.328Z,11.60
2022-12-13T13:13:13.014Z,10.07
2022-12-13T13:15:36.630Z,9.20
2022-12-13T13:17:59.977Z,10.70
2022-12-13T13:20:34.403Z,10.30
2022-12-13T13:22:44.472Z,10.77
2022-12-13T13:28:24.135Z,10.60
2022-12-13T13:30:56.043Z,11.30
2022-12-13T13:39:40.707Z,9.60
2022-12-13T13:42:25.241Z,11.97
2022-12-13T13:45:05.789Z,11.50
2022-12-13T13:47:18.807Z,10.03
2022-12-13T13:49:31.464Z,12.43
2022-12-13T13:52:24.809Z,10.77
2022-12-13T13:54:49.711Z,9.63
2022-12-13T13:57:14.831Z,9.53
2022-12-13T14:00:17.972Z,9.77
2022-12-13T14:03:35.396Z,10.63
2022-12-13T14:06:11.690Z,9.97
2022-12-13T14:08:37.000Z,11.53
2022-12-13T14:11:46.735Z,10.57
2022-12-13T14:14:02.082Z,9.53
2022-12-13T14:16:28.940Z,10.10
2022-12-13T14:19:32.388Z,9.03
2022-12-13T14:21:51.807Z,10.17
2022-12-13T14:24:42.035Z,9.63
2022-12-13T14:27:12.783Z,8.20
2022-12-13T14:29:28.976Z,9.97
2022-12-13T14:31:42.460Z,8.13
2022-12-13T14:36:36.482Z,8.77
2022-12-13T14:39:01.495Z,9.37
2022-12-13T14:44:08.171Z,7.87
2022-12-13T14:46:24.516Z,8.60
2022-12-13T14:48:49.970Z,10.37
2022-12-13T14:51:06.207Z,10.23
2022-12-13T14:53:39.503Z,8.90
2022-12-13T14:56:28.457Z,9.47
2022-12-13T14:58:31.965Z,9.67
2022-12-13T15:00:47.933Z,8.10
2022-12-13T15:03:08.623Z,9.00
2022-12-13T15:06:03.057Z,8.57
2022-12-13T15:08:32.218Z,9.13
2022-12-13T15:10:48.826Z,9.27
2022-12-13T15:15:38.029Z,10.07
2022-12-13T15:17:51.902Z,9.87
2022-12-13T15:20:32.951Z,8.93
2022-12-13T15:23:01.271Z,9.07
2022-12-13T15:25:36.210Z,8.07
2022-12-13T15:27:42.409Z,9.17
2022-12-13T15:29:59.655Z,10.60
2022-12-13T15:32:15.303Z,8.80
2022-12-13T15:34:30.566Z,8.83
2022-12-13T15:36:52.192Z,8.63
2022-12-13T15:39:03.180Z,9.33
2022-12-13T15:41:23.063Z,8.97
2022-12-13T15:43:50.994Z,9.87
2022-12-13T15:45:55.879Z,8.53
2022-12-13T15:48:06.445Z,8.60
2022-12-13T15:50:48.679Z,7.47
2022-12-13T15:53:00.923Z,10.83
2022-12-13T15:55:12.948Z,8.77
2022-12-13T15:58:09.300Z,7.73
2022-12-13T16:00:31.634Z,9.47
2022-12-13T16:02:55.116Z,9.20
2022-12-13T16:05:13.356Z,8.40
2022-12-13T16:07:31.126Z,9.07
2022-12-13T16:12:28.075Z,8.90
2022-12-13T16:14:48.954Z,8.50
2022-12-13T16:17:08.586Z,7.47
2022-12-13T16:19:27.524Z,8.50
2022-12-13T16:21:38.159Z,8.83
2022-12-13T16:23:49.600Z,8.43
2022-12-13T16:25:58.641Z,10.73
2022-12-13T16:28:33.047Z,7.63
2022-12-13T16:31:02.404Z,9.50
2022-12-13T16:33:19.055Z,7.80
2022-12-13T16:38:25.848Z,8.40
2022-12-13T16:40:43.162Z,8.67
2022-12-13T16:42:52.720Z,9.77
2022-12-13T16:45:41.527Z,9.37
2022-12-13T16:47:57.064Z,9.10
2022-12-13T16:50:08.470Z,8.13
2022-12-13T16:52:21.918Z,10.13
2022-12-13T16:54:46.380Z,8.27
2022-12-13T16:56:54.187Z,9.53
2022-12-13T16:59:17.002Z,9.20
2022-12-13T17:01:27.851Z,9.03
2022-12-13T17:06:19.599Z,9.87
2022-12-13T17:08:18.563Z,9.53
2022-12-13T17:10:27.167Z,9.70
2022-12-13T17:12:33.433Z,10.43
2022-12-13T17:14:35.549Z,10.10
2022-12-13T17:16:49.433Z,9.20
2022-12-13T17:18:54.143Z,11.23
2022-12-13T17:21:17.528Z,10.27
2022-12-13T17:23:26.551Z,10.50
2022-12-13T17:25:29.433Z,10.37
2022-12-13T17:27:35.870Z,11.80
2022-12-13T17:30:10.505Z,11.23
2022-12-13T17:32:43.697Z,10.77
2022-12-13T17:34:48.729Z,9.43
2022-12-13T17:36:58.103Z,11.43
2022-12-13T17:39:05.843Z,12.50
2022-12-13T17:41:10.690Z,12.27
2022-12-13T17:43:32.949Z,12.03
2022-12-13T17:45:44.469Z,11.00
2022-12-13T17:47:49.470Z,10.00
2022-12-13T17:52:54.366Z,9.97
2022-12-13T17:55:02.123Z,11.60
2022-12-13T17:57:16.401Z,11.83
2022-12-13T17:59:26.143Z,12.10
2022-12-13T18:01:30.777Z,11.70
2022-12-13T18:03:37.657Z,11.13
2022-12-13T18:05:46.735Z,11.10
2022-12-13T18:12:10.031Z,10.03
2022-12-13T18:14:18.383Z,10.93
2022-12-13T18:16:37.341Z,11.30
2022-12-13T18:19:05.265Z,11.60
2022-12-13T18:21:18.744Z,14.33
2022-12-13T18:23:55.277Z,11.90
2022-12-13T18:26:06.186Z,11.47
2022-12-13T18:30:29.452Z,13.73
2022-12-13T18:32:38.294Z,12.07
2022-12-13T18:34:47.838Z,11.33
2022-12-13T18:37:15.841Z,12.57
2022-12-13T18:39:25.144Z,10.97
2022-12-13T18:41:30.728Z,14.03
2022-12-13T18:43:45.266Z,12.33
2022-12-13T18:45:55.257Z,13.10
2022-12-13T18:48:12.877Z,11.00
2022-12-13T18:50:35.513Z,10.77
2022-12-13T18:53:00.607Z,11.97
2022-12-13T18:55:16.010Z,11.23
2022-12-13T18:57:30.970Z,10.93
2022-12-13T18:59:39.681Z,10.70
2022-12-13T19:01:55.396Z,11.23
2022-12-13T19:04:12.808Z,12.43
2022-12-13T19:06:39.345Z,11.73
2022-12-13T19:09:07.246Z,12.87
2022-12-13T19:13:58.398Z,11.67
2022-12-13T19:16:18.537Z,11.73
2022-12-13T19:18:32.832Z,12.93
2022-12-13T19:23:30.071Z,12.33
2022-12-13T19:25:49.940Z,13.57
2022-12-13T19:28:15.337Z,12.60
2022-12-13T19:30:28.103Z,13.00
2022-12-13T19:32:35.794Z,13.10
2022-12-13T19:34:43.215Z,11.23
2022-12-13T19:37:01.627Z,13.77
2022-12-13T19:39:26.067Z,11.17
2022-12-13T19:41:33.941Z,11.00
2022-12-13T19:43:44.597Z,12.63
2022-12-13T19:46:05.919Z,10.67
2022-12-13T19:48:10.205Z,11.97
2022-12-13T19:50:23.634Z,10.97
2022-12-13T19:55:18.202Z,11.27
2022-12-13T19:57:44.597Z,11.03
2022-12-13T20:00:02.787Z,10.53
2022-12-13T20:02:24.905Z,11.23
2022-12-13T20:04:36.953Z,13.10
2022-12-13T20:06:40.833Z,12.07
2022-12-13T20:08:48.608Z,16.47
2022-12-13T20:13:30.557Z,13.93
2022-12-13T20:15:38.698Z,15.27
2022-12-13T20:17:55.683Z,13.57
2022-12-13T20:20:17.408Z,12.97
2022-12-13T20:22:29.163Z,14.17
2022-12-13T20:24:58.191Z,14.17
2022-12-13T20:27:22.768Z,13.10
2022-12-13T20:29:29.353Z,14.20
2022-12-13T20:31:49.095Z,11.77
2022-12-13T20:34:06.140Z,13.93
2022-12-13T20:36:25.911Z,13.73
2022-12-13T20:38:45.471Z,13.40
2022-12-13T20:40:52.749Z,11.67
2022-12-13T20:43:18.137Z,12.77
2022-12-13T20:45:26.194Z,15.40
2022-12-13T20:47:37.965Z,14.13
2022-12-13T20:49:49.281Z,13.87
2022-12-13T20:51:51.094Z,12.23
2022-12-13T20:54:04.640Z,13.80
2022-12-13T20:56:21.561Z,14.70
2022-12-13T20:58:30.182Z,15.30
2022-12-13T21:00:38.632Z,13.93
2022-12-13T21:02:46.052Z,13.77
2022-12-13T21:05:06.347Z,14.57
2022-12-13T21:07:14.798Z,15.17
2022-12-13T21:09:21.979Z,14.27
2022-12-13T21:11:37.637Z,13.83
2022-12-13T21:15:57.042Z,14.47
2022-12-13T21:18:19.638Z,13.93
2022-12-13T21:20:26.858Z,13.10
2022-12-13T21:24:55.461Z,14.77
2022-12-13T21:27:10.283Z,13.67
2022-12-13T21:29:25.623Z,15.20
2022-12-13T21:31:31.108Z,12.53
2022-12-13T21:33:45.265Z,14.07
2022-12-13T21:35:54.846Z,12.17
2022-12-13T21:38:11.055Z,12.97
2022-12-13T21:40:19.995Z,14.13
2022-12-13T21:42:31.809Z,14.67
2022-12-13T21:44:44.177Z,15.93
2022-12-13T21:47:12.833Z,13.73
2022-12-13T21:49:30.344Z,14.73
2022-12-13T21:51:48.601Z,14.27
2022-12-13T21:54:10.084Z,16.13
2022-12-13T21:56:43.529Z,13.77
2022-12-13T21:59:13.486Z,15.00
2022-12-13T22:01:26.315Z,14.97
2022-12-13T22:03:50.160Z,14.17
2022-12-13T22:06:04.109Z,14.03
2022-12-13T22:08:07.813Z,14.90
2022-12-13T22:10:09.769Z,13.77
2022-12-13T22:12:21.198Z,13.07
2022-12-13T22:14:23.074Z,13.50
2022-12-13T22:16:27.205Z,12.37
2022-12-13T22:18:29.283Z,15.77
2022-12-13T22:20:34.582Z,14.03
2022-12-13T22:22:38.273Z,14.10
2022-12-13T22:24:42.276Z,15.83
2022-12-13T22:26:43.971Z,13.93
2022-12-13T22:28:45.706Z,13.30
2022-12-13T22:30:55.827Z,14.63
2022-12-13T22:32:57.490Z,14.60
2022-12-13T22:35:03.632Z,14.80
2022-12-13T22:37:05.360Z,13.63
2022-12-13T22:39:07.080Z,15.43
2022-12-13T22:41:14.138Z,13.67
2022-12-13T22:43:20.398Z,13.73
2022-12-13T22:45:22.374Z,12.93
2022-12-13T22:47:24.068Z,13.93
2022-12-13T22:49:25.978Z,12.53
2022-12-13T22:51:27.650Z,13.60
2022-12-13T22:53:29.656Z,14.50
2022-12-13T22:55:31.724Z,15.70
2022-12-13T22:57:33.374Z,15.17
2022-12-13T22:59:35.069Z,14.30
2022-12-13T23:01:40.369Z,13.17
2022-12-13T23:03:43.187Z,14.50
2022-12-13T23:05:44.844Z,12.10
2022-12-13T23:07:48.912Z,12.77
2022-12-13T23:09:50.861Z,15.07
2022-12-13T23:12:11.430Z,14.33
2022-12-13T23:14:15.886Z,14.30
2022-12-13T23:16:17.674Z,12.10
2022-12-13T23:18:19.484Z,14.60
2022-12-13T23:20:22.460Z,14.73
2022-12-13T23:22:25.578Z,13.63
2022-12-13T23:24:27.813Z,11.77
2022-12-13T23:26:31.791Z,14.17
2022-12-13T23:28:33.465Z,13.47
2022-12-13T23:30:37.985Z,14.87
2022-12-13T23:33:28.901Z,14.67
2022-12-13T23:35:33.108Z,13.93
2022-12-13T23:37:37.338Z,12.00
2022-12-13T23:39:39.088Z,12.90
2022-12-13T23:41:40.793Z,14.70
2022-12-13T23:43:43.963Z,12.23
2022-12-13T23:45:50.424Z,15.03
2022-12-13T23:47:54.190Z,13.40
2022-12-13T23:49:55.827Z,13.83
2022-12-13T23:51:57.462Z,14.93
2022-12-13T23:53:59.436Z,12.40
2022-12-13T23:56:09.936Z,13.20
2022-12-13T23:58:11.635Z,13.23
